sensor_id;sensor_type;location;lat;lon;timestamp;pressure;altitude;pressure_sealevel;temperature;humidity
44127;BME280;29786;50.798;7.302;2023-02-13T00:00:33;101270;;;7.64;100
44127;BME280;29786;50.798;7.302;2023-02-13T00:01:33;101270;;;7.59;100
44127;BME280;29786;50.798;7.302;2023-02-13T00:02:33;101270;;;7.62;100
44127;BME280;29786;50.798;7.302;2023-02-13T00:03:33;101280;;;7.54;100
44127;BME280;29786;50.798;7.302;2023-02-13T00:04:34;101270;;;7.58;100
44127;BME280;29786;50.798;7.302;2023-02-13T00:05:33;101270;;;7.63;100
44127;BME280;29786;50.798;7.302;2023-02-13T00:06:33;101270;;;7.65;100
44127;BME280;29786;50.798;7.302;2023-02-13T00:07:33;101270;;;7.66;100
44127;BME280;29786;50.798;7.302;2023-02-13T00:08:34;101270;;;7.71;100
44127;BME280;29786;50.798;7.302;2023-02-13T00:09:34;101270;;;7.71;100
44127;BME280;29786;50.798;7.302;2023-02-13T00:10:33;101270;;;7.61;100
44127;BME280;29786;50.798;7.302;2023-02-13T00:11:33;101260;;;7.58;100
44127;BME280;29786;50.798;7.302;2023-02-13T00:12:34;101260;;;7.62;100
44127;BME280;29786;50.798;7.302;2023-02-13T00:13:34;101260;;;7.56;100
44127;BME280;29786;50.798;7.302;2023-02-13T00:14:34;101260;;;7.56;100
44127;BME280;29786;50.798;7.302;2023-02-13T00:15:33;101260;;;7.63;100
44127;BME280;29786;50.798;7.302;2023-02-13T00:16:33;101260;;;7.66;100
44127;BME280;29786;50.798;7.302;2023-02-13T00:17:34;101260;;;7.6;100
44127;BME280;29786;50.798;7.302;2023-02-13T00:18:34;101260;;;7.55;100
44127;BME280;29786;50.798;7.302;2023-02-13T00:19:34;101260;;;7.56;100
44127;BME280;29786;50.798;7.302;2023-02-13T00:20:33;101260;;;7.52;100
44127;BME280;29786;50.798;7.302;2023-02-13T00:21:34;101260;;;7.57;100
44127;BME280;29786;50.798;7.302;2023-02-13T00:22:34;101250;;;7.55;100
44127;BME280;29786;50.798;7.302;2023-02-13T00:23:34;101260;;;7.54;100
44127;BME280;29786;50.798;7.302;2023-02-13T00:24:33;101250;;;7.49;100
44127;BME280;29786;50.798;7.302;2023-02-13T00:25:34;101250;;;7.56;100
44127;BME280;29786;50.798;7.302;2023-02-13T00:26:34;101250;;;7.58;100
44127;BME280;29786;50.798;7.302;2023-02-13T00:27:33;101250;;;7.63;100
44127;BME280;29786;50.798;7.302;2023-02-13T00:28:33;101250;;;7.62;100
44127;BME280;29786;50.798;7.302;2023-02-13T00:29:33;101250;;;7.63;100
44127;BME280;29786;50.798;7.302;2023-02-13T00:30:34;101250;;;7.62;100
44127;BME280;29786;50.798;7.302;2023-02-13T00:31:33;101250;;;7.66;100
44127;BME280;29786;50.798;7.302;2023-02-13T00:32:34;101250;;;7.66;100
44127;BME280;29786;50.798;7.302;2023-02-13T00:33:33;101260;;;7.54;100
44127;BME280;29786;50.798;7.302;2023-02-13T00:34:33;101250;;;7.46;100
44127;BME280;29786;50.798;7.302;2023-02-13T00:35:33;101250;;;7.47;100
44127;BME280;29786;50.798;7.302;2023-02-13T00:36:32;101250;;;7.47;100
44127;BME280;29786;50.798;7.302;2023-02-13T00:37:33;101250;;;7.47;100
44127;BME280;29786;50.798;7.302;2023-02-13T00:38:33;101250;;;7.52;100
44127;BME280;29786;50.798;7.302;2023-02-13T00:39:33;101250;;;7.48;100
44127;BME280;29786;50.798;7.302;2023-02-13T00:40:34;101250;;;7.47;100
44127;BME280;29786;50.798;7.302;2023-02-13T00:41:33;101250;;;7.53;100
44127;BME280;29786;50.798;7.302;2023-02-13T00:42:33;101250;;;7.52;100
44127;BME280;29786;50.798;7.302;2023-02-13T00:43:33;101260;;;7.58;100
44127;BME280;29786;50.798;7.302;2023-02-13T00:44:33;101260;;;7.58;100
44127;BME280;29786;50.798;7.302;2023-02-13T00:45:34;101250;;;7.6;100
44127;BME280;29786;50.798;7.302;2023-02-13T00:46:33;101260;;;7.65;100
44127;BME280;29786;50.798;7.302;2023-02-13T00:47:34;101260;;;7.58;100
44127;BME280;29786;50.798;7.302;2023-02-13T00:48:33;101260;;;7.58;100
44127;BME280;29786;50.798;7.302;2023-02-13T00:49:33;101260;;;7.61;100
44127;BME280;29786;50.798;7.302;2023-02-13T00:50:33;101250;;;7.57;100
44127;BME280;29786;50.798;7.302;2023-02-13T00:51:34;101260;;;7.53;100
44127;BME280;29786;50.798;7.302;2023-02-13T00:52:33;101250;;;7.52;100
44127;BME280;29786;50.798;7.302;2023-02-13T00:53:33;101250;;;7.53;100
44127;BME280;29786;50.798;7.302;2023-02-13T00:54:33;101250;;;7.56;100
44127;BME280;29786;50.798;7.302;2023-02-13T00:55:33;101250;;;7.6;100
44127;BME280;29786;50.798;7.302;2023-02-13T00:56:33;101250;;;7.59;100
44127;BME280;29786;50.798;7.302;2023-02-13T00:57:33;101250;;;7.52;100
44127;BME280;29786;50.798;7.302;2023-02-13T00:58:34;101250;;;7.46;100
44127;BME280;29786;50.798;7.302;2023-02-13T00:59:33;101250;;;7.45;100
44127;BME280;29786;50.798;7.302;2023-02-13T01:00:33;101250;;;7.38;100
44127;BME280;29786;50.798;7.302;2023-02-13T01:01:34;101250;;;7.41;100
44127;BME280;29786;50.798;7.302;2023-02-13T01:02:33;101250;;;7.34;100
44127;BME280;29786;50.798;7.302;2023-02-13T01:03:34;101250;;;7.34;100
44127;BME280;29786;50.798;7.302;2023-02-13T01:04:33;101240;;;7.36;100
44127;BME280;29786;50.798;7.302;2023-02-13T01:05:33;101240;;;7.49;100
44127;BME280;29786;50.798;7.302;2023-02-13T01:06:34;101240;;;7.5;100
44127;BME280;29786;50.798;7.302;2023-02-13T01:07:34;101240;;;7.46;100
44127;BME280;29786;50.798;7.302;2023-02-13T01:08:34;101230;;;7.43;100
44127;BME280;29786;50.798;7.302;2023-02-13T01:09:34;101240;;;7.55;100
44127;BME280;29786;50.798;7.302;2023-02-13T01:10:33;101240;;;7.56;100
44127;BME280;29786;50.798;7.302;2023-02-13T01:11:34;101240;;;7.55;100
44127;BME280;29786;50.798;7.302;2023-02-13T01:12:33;101230;;;7.57;100
44127;BME280;29786;50.798;7.302;2023-02-13T01:13:33;101230;;;7.57;100
44127;BME280;29786;50.798;7.302;2023-02-13T01:14:33;101230;;;7.56;100
44127;BME280;29786;50.798;7.302;2023-02-13T01:15:34;101230;;;7.56;100
44127;BME280;29786;50.798;7.302;2023-02-13T01:16:33;101230;;;7.49;100
44127;BME280;29786;50.798;7.302;2023-02-13T01:17:34;101240;;;7.43;100
44127;BME280;29786;50.798;7.302;2023-02-13T01:18:33;101230;;;7.42;100
44127;BME280;29786;50.798;7.302;2023-02-13T01:19:33;101220;;;7.47;100
44127;BME280;29786;50.798;7.302;2023-02-13T01:20:33;101230;;;7.49;100
44127;BME280;29786;50.798;7.302;2023-02-13T01:21:33;101220;;;7.48;100
44127;BME280;29786;50.798;7.302;2023-02-13T01:22:33;101220;;;7.5;100
44127;BME280;29786;50.798;7.302;2023-02-13T01:23:35;101220;;;7.54;100
44127;BME280;29786;50.798;7.302;2023-02-13T01:24:33;101220;;;7.5;100
44127;BME280;29786;50.798;7.302;2023-02-13T01:25:33;101220;;;7.54;100
44127;BME280;29786;50.798;7.302;2023-02-13T01:26:33;101220;;;7.57;100
44127;BME280;29786;50.798;7.302;2023-02-13T01:27:33;101210;;;7.53;100
44127;BME280;29786;50.798;7.302;2023-02-13T01:28:34;101220;;;7.51;100
44127;BME280;29786;50.798;7.302;2023-02-13T01:29:33;101210;;;7.43;100
44127;BME280;29786;50.798;7.302;2023-02-13T01:30:33;101210;;;7.42;100
44127;BME280;29786;50.798;7.302;2023-02-13T01:31:34;101220;;;7.43;100
44127;BME280;29786;50.798;7.302;2023-02-13T01:32:33;101220;;;7.48;100
44127;BME280;29786;50.798;7.302;2023-02-13T01:33:33;101220;;;7.52;100
44127;BME280;29786;50.798;7.302;2023-02-13T01:34:33;101210;;;7.57;100
44127;BME280;29786;50.798;7.302;2023-02-13T01:35:33;101210;;;7.47;100
44127;BME280;29786;50.798;7.302;2023-02-13T01:36:34;101220;;;7.44;100
44127;BME280;29786;50.798;7.302;2023-02-13T01:37:34;101210;;;7.41;100
44127;BME280;29786;50.798;7.302;2023-02-13T01:38:33;101220;;;7.4;100
44127;BME280;29786;50.798;7.302;2023-02-13T01:39:33;101220;;;7.4;100
44127;BME280;29786;50.798;7.302;2023-02-13T01:40:33;101210;;;7.38;100
44127;BME280;29786;50.798;7.302;2023-02-13T01:41:34;101220;;;7.4;100
44127;BME280;29786;50.798;7.302;2023-02-13T01:42:33;101220;;;7.36;100
44127;BME280;29786;50.798;7.302;2023-02-13T01:45:33;101210;;;7.31;100
44127;BME280;29786;50.798;7.302;2023-02-13T01:46:36;101210;;;7.37;100
44127;BME280;29786;50.798;7.302;2023-02-13T01:47:39;101220;;;7.38;100
44127;BME280;29786;50.798;7.302;2023-02-13T01:48:33;101220;;;7.38;100
44127;BME280;29786;50.798;7.302;2023-02-13T01:49:34;101220;;;7.4;100
44127;BME280;29786;50.798;7.302;2023-02-13T01:50:35;101220;;;7.4;100
44127;BME280;29786;50.798;7.302;2023-02-13T01:51:33;101210;;;7.35;100
44127;BME280;29786;50.798;7.302;2023-02-13T01:52:34;101210;;;7.4;100
44127;BME280;29786;50.798;7.302;2023-02-13T01:53:37;101210;;;7.45;100
44127;BME280;29786;50.798;7.302;2023-02-13T01:54:34;101220;;;7.4;100
44127;BME280;29786;50.798;7.302;2023-02-13T01:55:33;101210;;;7.28;100
44127;BME280;29786;50.798;7.302;2023-02-13T01:56:35;101210;;;7.4;100
44127;BME280;29786;50.798;7.302;2023-02-13T01:57:33;101210;;;7.41;100
44127;BME280;29786;50.798;7.302;2023-02-13T01:58:34;101210;;;7.39;100
44127;BME280;29786;50.798;7.302;2023-02-13T01:59:36;101210;;;7.44;100
44127;BME280;29786;50.798;7.302;2023-02-13T02:00:33;101210;;;7.47;100
44127;BME280;29786;50.798;7.302;2023-02-13T02:01:33;101210;;;7.44;100
44127;BME280;29786;50.798;7.302;2023-02-13T02:02:35;101210;;;7.47;100
44127;BME280;29786;50.798;7.302;2023-02-13T02:03:36;101210;;;7.45;100
44127;BME280;29786;50.798;7.302;2023-02-13T02:04:34;101210;;;7.36;100
44127;BME280;29786;50.798;7.302;2023-02-13T02:05:33;101210;;;7.23;100
44127;BME280;29786;50.798;7.302;2023-02-13T02:06:33;101210;;;7.24;100
44127;BME280;29786;50.798;7.302;2023-02-13T02:07:33;101220;;;7.29;100
44127;BME280;29786;50.798;7.302;2023-02-13T02:08:34;101210;;;7.27;100
44127;BME280;29786;50.798;7.302;2023-02-13T02:09:34;101220;;;7.3;100
44127;BME280;29786;50.798;7.302;2023-02-13T02:10:34;101220;;;7.37;100
44127;BME280;29786;50.798;7.302;2023-02-13T02:11:35;101220;;;7.42;100
44127;BME280;29786;50.798;7.302;2023-02-13T02:13:07;101220;;;7.48;100
44127;BME280;29786;50.798;7.302;2023-02-13T02:13:34;101220;;;7.47;100
44127;BME280;29786;50.798;7.302;2023-02-13T02:14:33;101220;;;7.5;100
44127;BME280;29786;50.798;7.302;2023-02-13T02:15:33;101220;;;7.48;100
44127;BME280;29786;50.798;7.302;2023-02-13T02:16:34;101230;;;7.46;100
44127;BME280;29786;50.798;7.302;2023-02-13T02:17:33;101220;;;7.46;100
44127;BME280;29786;50.798;7.302;2023-02-13T02:18:33;101220;;;7.37;100
44127;BME280;29786;50.798;7.302;2023-02-13T02:19:44;101230;;;7.35;100
44127;BME280;29786;50.798;7.302;2023-02-13T02:20:44;101220;;;7.29;100
44127;BME280;29786;50.798;7.302;2023-02-13T02:21:53;101230;;;7.4;100
44127;BME280;29786;50.798;7.302;2023-02-13T02:24:40;101230;;;7.33;100
44127;BME280;29786;50.798;7.302;2023-02-13T02:24:44;101230;;;7.38;100
44127;BME280;29786;50.798;7.302;2023-02-13T02:26:39;101220;;;7.35;100
44127;BME280;29786;50.798;7.302;2023-02-13T02:27:39;101220;;;7.29;100
44127;BME280;29786;50.798;7.302;2023-02-13T02:28:40;101220;;;7.3;100
44127;BME280;29786;50.798;7.302;2023-02-13T02:29:39;101230;;;7.35;100
44127;BME280;29786;50.798;7.302;2023-02-13T02:30:41;101220;;;7.4;100
44127;BME280;29786;50.798;7.302;2023-02-13T02:31:45;101220;;;7.37;100
44127;BME280;29786;50.798;7.302;2023-02-13T02:32:40;101220;;;7.44;100
44127;BME280;29786;50.798;7.302;2023-02-13T02:35:36;101220;;;7.34;100
44127;BME280;29786;50.798;7.302;2023-02-13T02:36:38;101220;;;7.37;100
44127;BME280;29786;50.798;7.302;2023-02-13T02:37:52;101210;;;7.32;100
44127;BME280;29786;50.798;7.302;2023-02-13T02:38:39;101220;;;7.36;100
44127;BME280;29786;50.798;7.302;2023-02-13T02:39:39;101220;;;7.37;100
44127;BME280;29786;50.798;7.302;2023-02-13T02:40:37;101220;;;7.4;100
44127;BME280;29786;50.798;7.302;2023-02-13T02:42:09;101220;;;7.33;100
44127;BME280;29786;50.798;7.302;2023-02-13T02:42:38;101220;;;7.39;100
44127;BME280;29786;50.798;7.302;2023-02-13T02:44:08;101220;;;7.36;100
44127;BME280;29786;50.798;7.302;2023-02-13T02:44:40;101220;;;7.36;100
44127;BME280;29786;50.798;7.302;2023-02-13T02:45:39;101220;;;7.39;100
44127;BME280;29786;50.798;7.302;2023-02-13T02:46:36;101220;;;7.4;100
44127;BME280;29786;50.798;7.302;2023-02-13T02:48:40;101220;;;7.28;100
44127;BME280;29786;50.798;7.302;2023-02-13T02:49:33;101210;;;7.28;100
44127;BME280;29786;50.798;7.302;2023-02-13T02:50:35;101220;;;7.36;100
44127;BME280;29786;50.798;7.302;2023-02-13T02:51:34;101220;;;7.39;100
44127;BME280;29786;50.798;7.302;2023-02-13T02:52:41;101220;;;7.4;100
44127;BME280;29786;50.798;7.302;2023-02-13T02:53:52;101210;;;7.34;100
44127;BME280;29786;50.798;7.302;2023-02-13T02:54:50;101220;;;7.3;100
44127;BME280;29786;50.798;7.302;2023-02-13T02:55:51;101210;;;7.27;100
44127;BME280;29786;50.798;7.302;2023-02-13T02:56:36;101210;;;7.32;100
44127;BME280;29786;50.798;7.302;2023-02-13T02:57:37;101220;;;7.33;100
44127;BME280;29786;50.798;7.302;2023-02-13T02:58:36;101220;;;7.35;100
44127;BME280;29786;50.798;7.302;2023-02-13T02:59:33;101220;;;7.34;100
44127;BME280;29786;50.798;7.302;2023-02-13T03:00:34;101220;;;7.35;100
44127;BME280;29786;50.798;7.302;2023-02-13T03:01:34;101220;;;7.37;100
44127;BME280;29786;50.798;7.302;2023-02-13T03:02:34;101220;;;7.35;100
44127;BME280;29786;50.798;7.302;2023-02-13T03:03:33;101220;;;7.34;100
44127;BME280;29786;50.798;7.302;2023-02-13T03:04:37;101220;;;7.34;100
44127;BME280;29786;50.798;7.302;2023-02-13T03:05:34;101220;;;7.36;100
44127;BME280;29786;50.798;7.302;2023-02-13T03:06:36;101220;;;7.4;100
44127;BME280;29786;50.798;7.302;2023-02-13T03:07:33;101210;;;7.33;100
44127;BME280;29786;50.798;7.302;2023-02-13T03:08:34;101210;;;7.35;100
44127;BME280;29786;50.798;7.302;2023-02-13T03:09:36;101220;;;7.37;100
44127;BME280;29786;50.798;7.302;2023-02-13T03:10:34;101220;;;7.44;100
44127;BME280;29786;50.798;7.302;2023-02-13T03:11:33;101220;;;7.42;100
44127;BME280;29786;50.798;7.302;2023-02-13T03:12:35;101220;;;7.49;100
44127;BME280;29786;50.798;7.302;2023-02-13T03:13:38;101220;;;7.46;100
44127;BME280;29786;50.798;7.302;2023-02-13T03:14:33;101220;;;7.45;100
44127;BME280;29786;50.798;7.302;2023-02-13T03:15:34;101220;;;7.37;100
44127;BME280;29786;50.798;7.302;2023-02-13T03:16:33;101220;;;7.36;100
44127;BME280;29786;50.798;7.302;2023-02-13T03:17:34;101220;;;7.35;100
44127;BME280;29786;50.798;7.302;2023-02-13T03:18:35;101220;;;7.28;100
44127;BME280;29786;50.798;7.302;2023-02-13T03:19:37;101220;;;7.28;100
44127;BME280;29786;50.798;7.302;2023-02-13T03:20:44;101230;;;7.25;100
44127;BME280;29786;50.798;7.302;2023-02-13T03:22:36;101230;;;7.26;100
44127;BME280;29786;50.798;7.302;2023-02-13T03:23:42;101230;;;7.28;100
44127;BME280;29786;50.798;7.302;2023-02-13T03:24:44;101230;;;7.19;100
44127;BME280;29786;50.798;7.302;2023-02-13T03:25:36;101230;;;7.28;100
44127;BME280;29786;50.798;7.302;2023-02-13T03:26:36;101230;;;7.2;100
44127;BME280;29786;50.798;7.302;2023-02-13T03:28:35;101230;;;7.35;100
44127;BME280;29786;50.798;7.302;2023-02-13T03:29:40;101230;;;7.41;100
44127;BME280;29786;50.798;7.302;2023-02-13T03:31:34;101240;;;7.38;100
44127;BME280;29786;50.798;7.302;2023-02-13T03:34:35;101240;;;7.37;100
44127;BME280;29786;50.798;7.302;2023-02-13T03:34:40;101240;;;7.31;100
44127;BME280;29786;50.798;7.302;2023-02-13T03:35:49;101240;;;7.34;100
44127;BME280;29786;50.798;7.302;2023-02-13T03:36:37;101230;;;7.38;100
44127;BME280;29786;50.798;7.302;2023-02-13T03:37:34;101240;;;7.48;100
44127;BME280;29786;50.798;7.302;2023-02-13T03:38:43;101240;;;7.47;100
44127;BME280;29786;50.798;7.302;2023-02-13T03:39:37;101240;;;7.44;100
44127;BME280;29786;50.798;7.302;2023-02-13T03:40:35;101240;;;7.28;100
44127;BME280;29786;50.798;7.302;2023-02-13T03:41:37;101240;;;7.19;100
44127;BME280;29786;50.798;7.302;2023-02-13T03:42:36;101240;;;7.27;100
44127;BME280;29786;50.798;7.302;2023-02-13T03:43:36;101240;;;7.33;100
44127;BME280;29786;50.798;7.302;2023-02-13T03:44:43;101230;;;7.43;100
44127;BME280;29786;50.798;7.302;2023-02-13T03:45:35;101240;;;7.5;100
44127;BME280;29786;50.798;7.302;2023-02-13T03:46:35;101240;;;7.38;100
44127;BME280;29786;50.798;7.302;2023-02-13T03:47:35;101240;;;7.39;100
44127;BME280;29786;50.798;7.302;2023-02-13T03:48:35;101240;;;7.35;100
44127;BME280;29786;50.798;7.302;2023-02-13T03:49:35;101240;;;7.27;100
44127;BME280;29786;50.798;7.302;2023-02-13T03:50:33;101240;;;7.29;100
44127;BME280;29786;50.798;7.302;2023-02-13T03:51:36;101240;;;7.28;100
44127;BME280;29786;50.798;7.302;2023-02-13T03:52:36;101230;;;7.26;100
44127;BME280;29786;50.798;7.302;2023-02-13T03:53:34;101230;;;7.33;100
44127;BME280;29786;50.798;7.302;2023-02-13T03:54:35;101230;;;7.41;100
44127;BME280;29786;50.798;7.302;2023-02-13T03:55:42;101230;;;7.39;100
44127;BME280;29786;50.798;7.302;2023-02-13T03:56:33;101230;;;7.24;100
44127;BME280;29786;50.798;7.302;2023-02-13T03:57:32;101230;;;7.19;100
44127;BME280;29786;50.798;7.302;2023-02-13T03:59:33;101230;;;7.21;100
44127;BME280;29786;50.798;7.302;2023-02-13T04:00:36;101230;;;7.2;100
44127;BME280;29786;50.798;7.302;2023-02-13T04:01:33;101230;;;7.26;100
44127;BME280;29786;50.798;7.302;2023-02-13T04:02:35;101230;;;7.22;100
44127;BME280;29786;50.798;7.302;2023-02-13T04:03:39;101230;;;7.17;100
44127;BME280;29786;50.798;7.302;2023-02-13T04:05:05;101230;;;7.2;100
44127;BME280;29786;50.798;7.302;2023-02-13T04:05:35;101230;;;7.12;100
44127;BME280;29786;50.798;7.302;2023-02-13T04:06:51;101230;;;7.14;100
44127;BME280;29786;50.798;7.302;2023-02-13T04:07:33;101230;;;7.14;100
44127;BME280;29786;50.798;7.302;2023-02-13T04:08:33;101230;;;7.08;100
44127;BME280;29786;50.798;7.302;2023-02-13T04:09:36;101230;;;7.16;100
44127;BME280;29786;50.798;7.302;2023-02-13T04:10:34;101230;;;7.25;100
44127;BME280;29786;50.798;7.302;2023-02-13T04:12:38;101230;;;7.13;100
44127;BME280;29786;50.798;7.302;2023-02-13T04:12:44;101230;;;7.19;100
44127;BME280;29786;50.798;7.302;2023-02-13T04:13:33;101230;;;7.11;100
44127;BME280;29786;50.798;7.302;2023-02-13T04:14:37;101230;;;7.15;100
44127;BME280;29786;50.798;7.302;2023-02-13T04:15:43;101230;;;7.15;100
44127;BME280;29786;50.798;7.302;2023-02-13T04:16:35;101230;;;7.08;100
44127;BME280;29786;50.798;7.302;2023-02-13T04:17:35;101230;;;6.97;100
44127;BME280;29786;50.798;7.302;2023-02-13T04:18:34;101230;;;7.13;100
44127;BME280;29786;50.798;7.302;2023-02-13T04:19:34;101230;;;7.1;100
44127;BME280;29786;50.798;7.302;2023-02-13T04:20:32;101230;;;7.13;100
44127;BME280;29786;50.798;7.302;2023-02-13T04:21:34;101230;;;7.05;100
44127;BME280;29786;50.798;7.302;2023-02-13T04:22:33;101230;;;7.04;100
44127;BME280;29786;50.798;7.302;2023-02-13T04:23:34;101230;;;6.97;100
44127;BME280;29786;50.798;7.302;2023-02-13T04:24:33;101230;;;6.97;100
44127;BME280;29786;50.798;7.302;2023-02-13T04:25:34;101230;;;7.03;100
44127;BME280;29786;50.798;7.302;2023-02-13T04:26:34;101230;;;7.03;100
44127;BME280;29786;50.798;7.302;2023-02-13T04:27:33;101230;;;7.03;100
44127;BME280;29786;50.798;7.302;2023-02-13T04:28:33;101230;;;6.96;100
44127;BME280;29786;50.798;7.302;2023-02-13T04:29:34;101230;;;6.94;100
44127;BME280;29786;50.798;7.302;2023-02-13T04:30:33;101230;;;6.87;100
44127;BME280;29786;50.798;7.302;2023-02-13T04:31:33;101230;;;6.86;100
44127;BME280;29786;50.798;7.302;2023-02-13T04:32:34;101230;;;6.84;100
44127;BME280;29786;50.798;7.302;2023-02-13T04:33:33;101230;;;6.88;100
44127;BME280;29786;50.798;7.302;2023-02-13T04:34:34;101230;;;6.97;100
44127;BME280;29786;50.798;7.302;2023-02-13T04:35:33;101230;;;6.93;100
44127;BME280;29786;50.798;7.302;2023-02-13T04:36:34;101230;;;6.84;100
44127;BME280;29786;50.798;7.302;2023-02-13T04:37:33;101230;;;6.74;100
44127;BME280;29786;50.798;7.302;2023-02-13T04:38:33;101230;;;6.76;100
44127;BME280;29786;50.798;7.302;2023-02-13T04:39:34;101220;;;6.79;100
44127;BME280;29786;50.798;7.302;2023-02-13T04:40:33;101230;;;6.79;100
44127;BME280;29786;50.798;7.302;2023-02-13T04:41:33;101230;;;6.79;100
44127;BME280;29786;50.798;7.302;2023-02-13T04:42:33;101230;;;6.78;100
44127;BME280;29786;50.798;7.302;2023-02-13T04:43:33;101230;;;6.75;100
44127;BME280;29786;50.798;7.302;2023-02-13T04:44:35;101230;;;6.71;100
44127;BME280;29786;50.798;7.302;2023-02-13T04:45:34;101230;;;6.7;100
44127;BME280;29786;50.798;7.302;2023-02-13T04:46:33;101230;;;6.72;100
44127;BME280;29786;50.798;7.302;2023-02-13T04:47:33;101230;;;6.77;100
44127;BME280;29786;50.798;7.302;2023-02-13T04:48:33;101230;;;6.78;100
44127;BME280;29786;50.798;7.302;2023-02-13T04:49:33;101230;;;6.73;100
44127;BME280;29786;50.798;7.302;2023-02-13T04:50:33;101230;;;6.7;100
44127;BME280;29786;50.798;7.302;2023-02-13T04:51:34;101230;;;6.7;100
44127;BME280;29786;50.798;7.302;2023-02-13T04:52:33;101230;;;6.67;100
44127;BME280;29786;50.798;7.302;2023-02-13T04:53:34;101230;;;6.65;100
44127;BME280;29786;50.798;7.302;2023-02-13T04:54:34;101230;;;6.69;100
44127;BME280;29786;50.798;7.302;2023-02-13T04:55:33;101220;;;6.59;100
44127;BME280;29786;50.798;7.302;2023-02-13T04:56:33;101220;;;6.69;100
44127;BME280;29786;50.798;7.302;2023-02-13T04:57:33;101220;;;6.74;100
44127;BME280;29786;50.798;7.302;2023-02-13T04:58:33;101230;;;6.74;100
44127;BME280;29786;50.798;7.302;2023-02-13T04:59:34;101220;;;6.76;100
44127;BME280;29786;50.798;7.302;2023-02-13T05:00:33;101220;;;6.8;100
44127;BME280;29786;50.798;7.302;2023-02-13T05:01:34;101220;;;6.77;100
44127;BME280;29786;50.798;7.302;2023-02-13T05:02:34;101220;;;6.71;100
44127;BME280;29786;50.798;7.302;2023-02-13T05:03:33;101220;;;6.7;100
44127;BME280;29786;50.798;7.302;2023-02-13T05:04:33;101220;;;6.78;100
44127;BME280;29786;50.798;7.302;2023-02-13T05:05:32;101220;;;6.82;100
44127;BME280;29786;50.798;7.302;2023-02-13T05:06:33;101220;;;6.81;100
44127;BME280;29786;50.798;7.302;2023-02-13T05:07:33;101220;;;6.88;100
44127;BME280;29786;50.798;7.302;2023-02-13T05:08:33;101220;;;6.9;100
44127;BME280;29786;50.798;7.302;2023-02-13T05:09:34;101220;;;6.86;100
44127;BME280;29786;50.798;7.302;2023-02-13T05:10:33;101220;;;6.76;100
44127;BME280;29786;50.798;7.302;2023-02-13T05:11:33;101220;;;6.77;100
44127;BME280;29786;50.798;7.302;2023-02-13T05:12:33;101220;;;6.7;100
44127;BME280;29786;50.798;7.302;2023-02-13T05:13:34;101220;;;6.69;100
44127;BME280;29786;50.798;7.302;2023-02-13T05:14:34;101220;;;6.68;100
44127;BME280;29786;50.798;7.302;2023-02-13T05:15:33;101230;;;6.69;100
44127;BME280;29786;50.798;7.302;2023-02-13T05:16:33;101220;;;6.58;100
44127;BME280;29786;50.798;7.302;2023-02-13T05:17:33;101220;;;6.62;100
44127;BME280;29786;50.798;7.302;2023-02-13T05:18:34;101220;;;6.64;100
44127;BME280;29786;50.798;7.302;2023-02-13T05:19:33;101220;;;6.66;100
44127;BME280;29786;50.798;7.302;2023-02-13T05:20:34;101220;;;6.61;100
44127;BME280;29786;50.798;7.302;2023-02-13T05:21:33;101220;;;6.66;100
44127;BME280;29786;50.798;7.302;2023-02-13T05:22:33;101220;;;6.62;100
44127;BME280;29786;50.798;7.302;2023-02-13T05:23:33;101220;;;6.68;100
44127;BME280;29786;50.798;7.302;2023-02-13T05:24:33;101220;;;6.67;100
44127;BME280;29786;50.798;7.302;2023-02-13T05:25:34;101220;;;6.65;100
44127;BME280;29786;50.798;7.302;2023-02-13T05:26:33;101220;;;6.53;100
44127;BME280;29786;50.798;7.302;2023-02-13T05:27:33;101220;;;6.45;100
44127;BME280;29786;50.798;7.302;2023-02-13T05:28:34;101220;;;6.52;100
44127;BME280;29786;50.798;7.302;2023-02-13T05:29:34;101220;;;6.5;100
44127;BME280;29786;50.798;7.302;2023-02-13T05:30:34;101220;;;6.52;100
44127;BME280;29786;50.798;7.302;2023-02-13T05:31:34;101220;;;6.43;100
44127;BME280;29786;50.798;7.302;2023-02-13T05:32:33;101220;;;6.51;100
44127;BME280;29786;50.798;7.302;2023-02-13T05:33:34;101220;;;6.43;100
44127;BME280;29786;50.798;7.302;2023-02-13T05:34:33;101220;;;6.37;100
44127;BME280;29786;50.798;7.302;2023-02-13T05:35:34;101220;;;6.4;100
44127;BME280;29786;50.798;7.302;2023-02-13T05:36:34;101220;;;6.4;100
44127;BME280;29786;50.798;7.302;2023-02-13T05:37:33;101220;;;6.31;100
44127;BME280;29786;50.798;7.302;2023-02-13T05:38:33;101220;;;6.23;100
44127;BME280;29786;50.798;7.302;2023-02-13T05:39:33;101220;;;6.27;100
44127;BME280;29786;50.798;7.302;2023-02-13T05:40:34;101220;;;6.27;100
44127;BME280;29786;50.798;7.302;2023-02-13T05:41:33;101220;;;6.15;100
44127;BME280;29786;50.798;7.302;2023-02-13T05:42:33;101220;;;5.99;100
44127;BME280;29786;50.798;7.302;2023-02-13T05:43:34;101220;;;6.08;100
44127;BME280;29786;50.798;7.302;2023-02-13T05:44:35;101220;;;6.11;100
44127;BME280;29786;50.798;7.302;2023-02-13T05:45:33;101220;;;6.01;100
44127;BME280;29786;50.798;7.302;2023-02-13T05:46:33;101220;;;6.1;100
44127;BME280;29786;50.798;7.302;2023-02-13T05:47:33;101220;;;6.03;100
44127;BME280;29786;50.798;7.302;2023-02-13T05:48:33;101230;;;5.99;100
44127;BME280;29786;50.798;7.302;2023-02-13T05:49:32;101220;;;5.96;100
44127;BME280;29786;50.798;7.302;2023-02-13T05:50:33;101220;;;5.89;100
44127;BME280;29786;50.798;7.302;2023-02-13T05:51:34;101220;;;5.87;100
44127;BME280;29786;50.798;7.302;2023-02-13T05:52:33;101220;;;5.79;100